createdAt,value
2023-01-29T00:02:46.692Z,2.46
2023-01-29T00:05:49.597Z,2.33
2023-01-29T00:08:52.505Z,2.08
2023-01-29T00:11:55.474Z,2.27
2023-01-29T00:14:58.225Z,1.92
2023-01-29T00:18:01.061Z,2.11
2023-01-29T00:21:04.204Z,2.03
2023-01-29T00:24:07.357Z,2.35
2023-01-29T00:27:10.372Z,2.40
2023-01-29T00:30:14.670Z,2.02
2023-01-29T00:33:18.120Z,2.20
2023-01-29T00:36:22.531Z,2.08
2023-01-29T00:39:31.489Z,2.08
2023-01-29T00:43:03.685Z,2.27
2023-01-29T00:46:07.905Z,2.32
2023-01-29T00:49:11.284Z,2.44
2023-01-29T00:52:25.924Z,2.43
2023-01-29T00:55:28.931Z,2.29
2023-01-29T00:58:34.457Z,2.22
2023-01-29T01:01:56.212Z,2.43
2023-01-29T01:04:58.967Z,2.54
2023-01-29T01:08:02.286Z,2.33
2023-01-29T01:11:06.509Z,2.41
2023-01-29T01:14:09.492Z,2.60
2023-01-29T01:17:12.337Z,2.48
2023-01-29T01:20:16.263Z,2.31
2023-01-29T01:23:19.916Z,2.37
2023-01-29T01:26:22.837Z,2.37
2023-01-29T01:29:25.483Z,2.59
2023-01-29T01:32:28.774Z,2.47
2023-01-29T01:35:31.438Z,2.21
2023-01-29T01:38:34.513Z,2.19
2023-01-29T01:41:37.140Z,2.39
2023-01-29T01:44:52.015Z,2.50
2023-01-29T01:48:01.613Z,2.44
2023-01-29T01:51:06.713Z,2.22
2023-01-29T01:54:24.201Z,2.05
2023-01-29T01:57:30.914Z,2.35
2023-01-29T02:00:34.502Z,1.94
2023-01-29T02:04:05.216Z,2.31
2023-01-29T02:07:32.663Z,2.23
2023-01-29T02:10:47.190Z,2.06
2023-01-29T02:13:53.720Z,2.68
2023-01-29T02:17:01.985Z,2.25
2023-01-29T02:20:20.902Z,2.26
2023-01-29T02:23:55.676Z,2.37
2023-01-29T02:27:20.039Z,2.17
2023-01-29T02:30:38.180Z,2.17
2023-01-29T02:33:52.990Z,2.01
2023-01-29T02:37:09.554Z,1.95
2023-01-29T02:40:21.533Z,1.77
2023-01-29T02:43:40.875Z,1.65
2023-01-29T02:47:04.154Z,1.78
2023-01-29T02:50:17.626Z,2.16
2023-01-29T02:53:45.977Z,2.30
2023-01-29T02:56:51.468Z,1.93
2023-01-29T03:00:02.411Z,2.29
2023-01-29T03:03:18.129Z,1.81
2023-01-29T03:06:37.005Z,1.91
2023-01-29T03:09:52.861Z,1.90
2023-01-29T03:13:05.591Z,1.76
2023-01-29T03:16:20.558Z,2.06
2023-01-29T03:19:50.973Z,2.01
2023-01-29T03:23:01.383Z,2.11
2023-01-29T03:26:25.197Z,2.26
2023-01-29T03:29:50.692Z,2.00
2023-01-29T03:32:57.198Z,2.00
2023-01-29T03:36:09.108Z,1.86
2023-01-29T03:39:14.073Z,1.89
2023-01-29T03:42:27.258Z,2.00
2023-01-29T03:46:08.450Z,1.64
2023-01-29T03:49:11.064Z,1.70
2023-01-29T03:52:19.465Z,1.54
2023-01-29T03:55:46.777Z,1.43
2023-01-29T03:59:31.135Z,1.26
2023-01-29T04:02:42.865Z,1.37
2023-01-29T04:05:52.166Z,1.61
2023-01-29T04:09:22.199Z,1.64
2023-01-29T04:12:36.256Z,1.33
2023-01-29T04:15:49.769Z,1.68
2023-01-29T04:18:54.843Z,1.78
2023-01-29T04:22:06.599Z,1.66
2023-01-29T04:25:17.440Z,1.69
2023-01-29T04:28:50.673Z,1.85
2023-01-29T04:32:24.092Z,1.79
2023-01-29T04:35:31.523Z,1.60
2023-01-29T04:38:41.533Z,1.50
2023-01-29T04:41:53.141Z,1.48
2023-01-29T04:45:08.211Z,1.30
2023-01-29T04:48:27.110Z,1.34
2023-01-29T04:51:58.903Z,1.71
2023-01-29T04:55:06.007Z,1.24
2023-01-29T04:58:18.459Z,1.43
2023-01-29T05:01:25.827Z,1.89
2023-01-29T05:04:32.821Z,1.60
2023-01-29T05:07:38.358Z,1.29
2023-01-29T05:10:42.577Z,1.68
2023-01-29T05:13:48.376Z,1.35
2023-01-29T05:16:54.160Z,1.49
2023-01-29T05:19:57.342Z,1.19
2023-01-29T05:23:00.207Z,1.74
2023-01-29T05:26:03.981Z,1.27
2023-01-29T05:29:07.217Z,1.61
2023-01-29T05:32:09.977Z,1.88
2023-01-29T05:35:13.479Z,1.38
2023-01-29T05:38:17.423Z,1.66
2023-01-29T05:41:21.158Z,1.50
2023-01-29T05:44:23.820Z,1.96
2023-01-29T05:47:26.704Z,1.98
2023-01-29T05:50:30.299Z,1.63
2023-01-29T05:53:33.859Z,1.64
2023-01-29T05:56:36.532Z,1.43
2023-01-29T05:59:39.632Z,1.50
2023-01-29T06:02:42.358Z,1.33
2023-01-29T06:05:45.336Z,1.40
2023-01-29T06:08:48.305Z,1.65
2023-01-29T06:11:51.656Z,1.81
2023-01-29T06:14:54.443Z,2.13
2023-01-29T06:17:57.692Z,1.58
2023-01-29T06:21:02.657Z,1.22
2023-01-29T06:24:06.207Z,1.36
2023-01-29T06:27:08.848Z,1.39
2023-01-29T06:30:12.428Z,1.54
2023-01-29T06:33:15.321Z,1.61
2023-01-29T06:36:19.259Z,1.43
2023-01-29T06:39:21.892Z,1.99
2023-01-29T06:42:28.101Z,1.85
2023-01-29T06:45:30.952Z,1.83
2023-01-29T06:48:33.923Z,1.69
2023-01-29T06:51:36.918Z,1.72
2023-01-29T06:54:40.050Z,1.64
2023-01-29T06:57:42.728Z,1.60
2023-01-29T07:00:45.922Z,1.67
2023-01-29T07:03:51.346Z,1.87
2023-01-29T07:06:54.319Z,1.97
2023-01-29T07:09:57.300Z,2.23
2023-01-29T07:13:00.292Z,2.19
2023-01-29T07:16:06.619Z,2.13
2023-01-29T07:19:09.489Z,2.43
2023-01-29T07:22:12.129Z,1.83
2023-01-29T07:25:15.150Z,2.18
2023-01-29T07:28:18.649Z,2.35
2023-01-29T07:31:23.087Z,2.31
2023-01-29T07:34:25.866Z,2.32
2023-01-29T07:37:28.905Z,2.35
2023-01-29T07:40:32.772Z,2.54
2023-01-29T07:43:35.991Z,2.38
2023-01-29T07:46:38.621Z,2.35
2023-01-29T07:49:41.739Z,2.48
2023-01-29T07:52:44.642Z,2.40
2023-01-29T07:55:47.604Z,2.35
2023-01-29T07:58:50.268Z,2.49
2023-01-29T08:01:53.246Z,2.50
2023-01-29T08:04:56.199Z,2.79
2023-01-29T08:08:06.603Z,2.76
2023-01-29T08:11:10.628Z,2.81
2023-01-29T08:14:13.280Z,2.80
2023-01-29T08:17:16.262Z,2.71
2023-01-29T08:20:20.072Z,2.72
2023-01-29T08:23:24.278Z,2.51
2023-01-29T08:26:27.433Z,2.92
2023-01-29T08:29:30.302Z,2.86
2023-01-29T08:32:32.951Z,2.46
2023-01-29T08:35:36.653Z,2.15
2023-01-29T08:38:39.614Z,2.81
2023-01-29T08:41:42.458Z,2.74
2023-01-29T08:44:45.026Z,2.89
2023-01-29T08:47:49.979Z,3.11
2023-01-29T08:50:52.849Z,2.75
2023-01-29T08:53:56.025Z,2.90
2023-01-29T08:56:58.656Z,3.23
2023-01-29T09:00:01.750Z,2.79
2023-01-29T09:03:05.118Z,2.65
2023-01-29T09:06:10.805Z,2.95
2023-01-29T09:09:14.607Z,3.23
2023-01-29T09:12:17.485Z,3.26
2023-01-29T09:15:20.270Z,3.13
2023-01-29T09:18:24.645Z,3.32
2023-01-29T09:21:27.288Z,2.89
2023-01-29T09:24:30.624Z,3.15
2023-01-29T09:27:33.428Z,2.94
2023-01-29T09:30:38.214Z,3.39
2023-01-29T09:33:40.950Z,3.55
2023-01-29T09:36:44.147Z,3.61
2023-01-29T09:39:46.993Z,3.64
2023-01-29T09:42:55.821Z,3.64
2023-01-29T09:46:08.093Z,3.73
2023-01-29T09:49:41.774Z,3.75
2023-01-29T09:52:51.929Z,3.24
2023-01-29T09:56:16.113Z,3.57
2023-01-29T09:59:22.469Z,3.66
2023-01-29T10:03:03.234Z,3.86
2023-01-29T10:06:25.777Z,3.96
2023-01-29T10:09:44.423Z,3.93
2023-01-29T10:13:42.717Z,4.03
2023-01-29T10:17:14.784Z,3.87
2023-01-29T10:20:42.209Z,4.18
2023-01-29T10:23:56.501Z,3.84
2023-01-29T10:27:01.108Z,3.91
2023-01-29T10:30:09.574Z,3.49
2023-01-29T10:33:19.380Z,3.52
2023-01-29T10:36:28.768Z,3.20
2023-01-29T10:39:31.823Z,3.53
2023-01-29T10:42:48.497Z,3.52
2023-01-29T10:46:26.596Z,3.48
2023-01-29T10:49:41.281Z,4.02
2023-01-29T10:53:21.193Z,4.00
2023-01-29T10:56:26.834Z,3.52
2023-01-29T11:00:00.043Z,3.40
2023-01-29T11:03:30.880Z,3.75
2023-01-29T11:06:35.756Z,3.58
2023-01-29T11:09:50.402Z,3.33
2023-01-29T11:12:54.421Z,3.34
2023-01-29T11:15:57.244Z,3.80
2023-01-29T11:19:01.677Z,3.60
2023-01-29T11:22:04.556Z,3.59
2023-01-29T11:25:17.845Z,3.24
2023-01-29T11:28:43.064Z,3.70
2023-01-29T11:31:46.145Z,3.54
2023-01-29T11:35:19.507Z,3.74
2023-01-29T11:38:28.529Z,3.67
2023-01-29T11:41:43.847Z,3.63
2023-01-29T11:44:47.372Z,3.10
2023-01-29T11:47:57.006Z,3.13
2023-01-29T11:51:01.425Z,3.34
2023-01-29T11:54:05.711Z,3.20
2023-01-29T11:57:21.111Z,3.47
2023-01-29T12:00:29.878Z,3.62
2023-01-29T12:03:48.616Z,3.75
2023-01-29T12:06:53.601Z,3.20
2023-01-29T12:09:59.735Z,3.20
2023-01-29T12:13:10.827Z,3.08
2023-01-29T12:16:16.846Z,3.33
2023-01-29T12:19:33.402Z,3.42
2023-01-29T12:22:49.999Z,2.91
2023-01-29T12:26:07.592Z,3.18
2023-01-29T12:29:25.648Z,2.91
2023-01-29T12:33:09.027Z,3.37
2023-01-29T12:36:21.752Z,3.13
2023-01-29T12:39:24.372Z,2.90
2023-01-29T12:42:27.831Z,2.88
2023-01-29T12:45:32.955Z,2.70
2023-01-29T12:48:40.092Z,2.39
2023-01-29T12:52:07.838Z,2.46
2023-01-29T12:55:21.779Z,2.71
2023-01-29T12:58:31.376Z,2.59
2023-01-29T13:01:43.076Z,2.48
2023-01-29T13:04:53.907Z,2.57
2023-01-29T13:08:28.873Z,2.68
2023-01-29T13:11:39.673Z,2.81
2023-01-29T13:14:46.456Z,2.97
2023-01-29T13:17:54.826Z,2.82
2023-01-29T13:21:00.199Z,2.91
2023-01-29T13:24:16.367Z,2.76
2023-01-29T13:27:28.631Z,2.88
2023-01-29T13:30:36.504Z,2.80
2023-01-29T13:33:42.097Z,3.12
2023-01-29T13:36:48.036Z,2.85
2023-01-29T13:39:53.266Z,2.61
2023-01-29T13:42:59.938Z,2.75
2023-01-29T13:46:18.503Z,2.73
2023-01-29T13:49:27.993Z,2.82
2023-01-29T13:52:43.303Z,3.27
2023-01-29T13:55:45.893Z,3.10
2023-01-29T13:58:58.406Z,2.79
2023-01-29T14:02:04.071Z,2.78
2023-01-29T14:05:31.081Z,2.82
2023-01-29T14:08:39.354Z,2.65
2023-01-29T14:11:48.620Z,2.66
2023-01-29T14:15:15.106Z,2.37
2023-01-29T14:18:21.220Z,2.33
2023-01-29T14:21:32.677Z,2.12
2023-01-29T14:24:35.641Z,2.61
2023-01-29T14:27:38.434Z,2.56
2023-01-29T14:30:48.246Z,2.74
2023-01-29T14:33:53.190Z,2.65
2023-01-29T14:37:01.402Z,2.52
2023-01-29T14:40:16.655Z,2.30
2023-01-29T14:43:21.075Z,2.11
2023-01-29T14:46:35.891Z,2.64
2023-01-29T14:50:24.129Z,2.92
2023-01-29T14:53:58.764Z,2.66
2023-01-29T14:57:05.977Z,2.54
2023-01-29T15:00:27.016Z,2.84
2023-01-29T15:03:39.725Z,2.96
2023-01-29T15:06:48.287Z,2.86
2023-01-29T15:10:21.949Z,2.87
2023-01-29T15:13:37.394Z,2.73
2023-01-29T15:16:57.530Z,2.79
2023-01-29T15:20:00.459Z,2.43
2023-01-29T15:23:04.846Z,2.37
2023-01-29T15:26:11.710Z,2.61
2023-01-29T15:29:24.815Z,2.84
2023-01-29T15:32:32.429Z,2.82
2023-01-29T15:35:36.981Z,2.61
2023-01-29T15:38:39.653Z,2.47
2023-01-29T15:41:43.876Z,2.58
2023-01-29T15:44:46.823Z,2.58
2023-01-29T15:47:50.886Z,2.49
2023-01-29T15:50:55.392Z,2.80
2023-01-29T15:54:05.780Z,2.51
2023-01-29T15:57:19.249Z,2.17
2023-01-29T16:00:28.728Z,2.41
2023-01-29T16:03:34.478Z,2.30
2023-01-29T16:06:40.488Z,2.69
2023-01-29T16:09:43.898Z,2.45
2023-01-29T16:12:51.548Z,2.33
2023-01-29T16:16:03.090Z,2.37
2023-01-29T16:19:21.548Z,2.32
2023-01-29T16:22:29.089Z,2.40
2023-01-29T16:25:34.070Z,2.20
2023-01-29T16:28:41.959Z,1.99
2023-01-29T16:31:47.363Z,2.26
2023-01-29T16:34:56.305Z,2.24
2023-01-29T16:38:04.661Z,2.14
2023-01-29T16:41:15.435Z,2.02
2023-01-29T16:44:21.260Z,1.94
2023-01-29T16:47:29.604Z,1.92
2023-01-29T16:50:46.197Z,2.09
2023-01-29T16:53:55.576Z,2.17
2023-01-29T16:57:00.464Z,1.82
2023-01-29T17:00:07.673Z,1.92
2023-01-29T17:03:14.771Z,1.93
2023-01-29T17:06:23.656Z,1.91
2023-01-29T17:09:34.002Z,1.76
2023-01-29T17:12:39.128Z,1.86
2023-01-29T17:15:44.997Z,1.98
2023-01-29T17:18:48.235Z,1.91
2023-01-29T17:21:51.371Z,1.91
2023-01-29T17:24:55.612Z,2.16
2023-01-29T17:28:01.593Z,2.05
2023-01-29T17:31:07.855Z,2.32
2023-01-29T17:34:15.211Z,2.16
2023-01-29T17:37:18.470Z,1.93
2023-01-29T17:40:39.559Z,2.06
2023-01-29T17:43:44.258Z,1.64
2023-01-29T17:46:47.811Z,1.81
2023-01-29T17:49:51.112Z,1.73
2023-01-29T17:52:54.204Z,1.64
2023-01-29T17:55:57.455Z,1.83
2023-01-29T17:59:01.006Z,1.89
2023-01-29T18:02:04.690Z,2.05
2023-01-29T18:05:08.439Z,1.46
2023-01-29T18:08:43.727Z,1.53
2023-01-29T18:11:47.725Z,1.79
2023-01-29T18:14:50.557Z,1.64
2023-01-29T18:17:53.794Z,1.64
2023-01-29T18:20:57.064Z,1.56
2023-01-29T18:24:00.239Z,1.52
2023-01-29T18:27:02.832Z,1.36
2023-01-29T18:30:07.218Z,1.27
2023-01-29T18:33:10.165Z,1.45
2023-01-29T18:36:13.722Z,1.42
2023-01-29T18:39:17.187Z,1.42
2023-01-29T18:42:20.092Z,1.53
2023-01-29T18:45:22.963Z,1.57
2023-01-29T18:48:26.703Z,1.42
2023-01-29T18:51:29.583Z,1.34
2023-01-29T18:54:32.756Z,1.18
2023-01-29T18:58:29.513Z,1.40
2023-01-29T19:01:09.104Z,1.34
2023-01-29T19:04:12.369Z,1.28
2023-01-29T19:07:15.765Z,1.45
2023-01-29T19:10:18.851Z,1.64
2023-01-29T19:13:22.665Z,1.52
2023-01-29T19:16:26.048Z,1.64
2023-01-29T19:19:29.482Z,1.46
2023-01-29T19:22:32.724Z,1.66
2023-01-29T19:25:39.347Z,1.61
2023-01-29T19:28:42.309Z,1.56
2023-01-29T19:31:47.142Z,1.55
2023-01-29T19:34:49.955Z,1.52
2023-01-29T19:37:53.092Z,1.37
2023-01-29T19:41:00.096Z,1.47
2023-01-29T19:44:03.469Z,1.15
2023-01-29T19:47:06.373Z,1.30
2023-01-29T19:50:11.088Z,1.51
2023-01-29T19:53:13.844Z,1.63
2023-01-29T19:56:18.726Z,1.70
2023-01-29T19:59:22.267Z,1.76
2023-01-29T20:02:25.325Z,1.67
2023-01-29T20:05:28.705Z,1.67
2023-01-29T20:08:33.144Z,1.80
2023-01-29T20:11:36.451Z,1.74
2023-01-29T20:14:43.262Z,1.54
2023-01-29T20:17:46.264Z,1.54
2023-01-29T20:20:50.729Z,1.50
2023-01-29T20:23:54.663Z,1.33
2023-01-29T20:26:58.457Z,1.58
2023-01-29T20:30:02.284Z,1.48
2023-01-29T20:33:06.617Z,1.18
2023-01-29T20:36:12.675Z,1.47
2023-01-29T20:39:15.841Z,1.52
2023-01-29T20:42:20.056Z,1.45
2023-01-29T20:45:23.313Z,1.52
2023-01-29T20:48:26.774Z,1.48
2023-01-29T20:51:30.864Z,1.53
2023-01-29T20:54:34.583Z,1.59
2023-01-29T20:57:38.726Z,1.40
2023-01-29T21:00:41.983Z,1.28
2023-01-29T21:03:45.536Z,1.41
2023-01-29T21:06:48.900Z,1.34
2023-01-29T21:09:51.800Z,1.23
2023-01-29T21:12:56.033Z,1.34
2023-01-29T21:15:59.250Z,1.09
2023-01-29T21:19:03.381Z,1.10
2023-01-29T21:22:06.308Z,1.13
2023-01-29T21:25:10.018Z,1.12
2023-01-29T21:28:12.990Z,1.15
2023-01-29T21:31:17.063Z,1.32
2023-01-29T21:34:19.994Z,1.30
2023-01-29T21:37:23.210Z,1.19
2023-01-29T21:40:25.902Z,1.17
2023-01-29T21:43:29.356Z,1.04
2023-01-29T21:46:32.042Z,1.08
2023-01-29T21:49:36.452Z,1.11
2023-01-29T21:52:39.155Z,1.09
2023-01-29T21:55:42.153Z,1.12
2023-01-29T21:58:47.458Z,1.09
2023-01-29T22:01:50.652Z,1.22
2023-01-29T22:05:08.694Z,1.13
2023-01-29T22:08:20.609Z,0.91
2023-01-29T22:11:23.807Z,1.15
2023-01-29T22:14:26.357Z,0.92
2023-01-29T22:17:29.173Z,1.01
2023-01-29T22:20:32.109Z,1.14
2023-01-29T22:23:35.008Z,1.17
2023-01-29T22:26:37.881Z,1.38
2023-01-29T22:29:41.283Z,1.11
2023-01-29T22:32:44.039Z,1.00
2023-01-29T22:35:46.945Z,1.20
2023-01-29T22:38:49.567Z,1.16
2023-01-29T22:41:52.573Z,1.10
2023-01-29T22:44:55.363Z,1.22
2023-01-29T22:47:58.563Z,1.35
2023-01-29T22:51:10.573Z,1.27
2023-01-29T22:54:15.499Z,1.21
2023-01-29T22:57:18.552Z,1.34
2023-01-29T23:00:21.890Z,1.32
2023-01-29T23:03:24.575Z,1.33
2023-01-29T23:06:27.467Z,1.24
2023-01-29T23:09:30.198Z,1.37
2023-01-29T23:12:33.220Z,1.19
2023-01-29T23:15:35.980Z,1.47
2023-01-29T23:18:39.320Z,1.45
2023-01-29T23:21:42.117Z,1.39
2023-01-29T23:24:45.036Z,1.43
2023-01-29T23:27:47.686Z,1.44
2023-01-29T23:30:52.192Z,1.31
2023-01-29T23:33:55.053Z,1.44
2023-01-29T23:36:58.541Z,1.48
2023-01-29T23:40:01.259Z,1.66
2023-01-29T23:43:04.170Z,1.84
2023-01-29T23:46:06.776Z,1.78
2023-01-29T23:49:09.858Z,1.68
2023-01-29T23:52:12.445Z,1.73
2023-01-29T23:55:15.581Z,1.69
2023-01-29T23:58:18.145Z,1.88
